createdAt,value
2018-03-26T00:01:45.949Z,24.77
2018-03-26T00:04:12.229Z,25.53
2018-03-26T00:06:38.524Z,27.57
2018-03-26T00:09:04.832Z,27.20
2018-03-26T00:11:31.097Z,27.00
2018-03-26T00:13:57.391Z,26.43
2018-03-26T00:16:23.649Z,28.17
2018-03-26T00:18:49.931Z,29.50
2018-03-26T00:21:16.218Z,26.07
2018-03-26T00:23:42.466Z,27.20
2018-03-26T00:26:08.722Z,27.33
2018-03-26T00:28:34.999Z,26.77
2018-03-26T00:31:01.272Z,28.50
2018-03-26T00:33:27.558Z,26.87
2018-03-26T00:35:53.873Z,27.47
2018-03-26T00:38:20.164Z,27.43
2018-03-26T00:40:46.425Z,27.33
2018-03-26T00:43:12.661Z,27.27
2018-03-26T00:45:38.905Z,27.77
2018-03-26T00:48:05.184Z,26.90
2018-03-26T00:50:31.457Z,26.20
2018-03-26T00:52:57.704Z,28.30
2018-03-26T00:55:23.938Z,28.63
2018-03-26T00:57:50.180Z,27.23
2018-03-26T01:00:16.501Z,28.30
2018-03-26T01:02:42.888Z,28.63
2018-03-26T01:05:09.132Z,27.63
2018-03-26T01:07:35.436Z,27.37
2018-03-26T01:10:01.717Z,28.63
2018-03-26T01:12:27.973Z,26.30
2018-03-26T01:14:54.241Z,26.40
2018-03-26T01:17:20.473Z,26.60
2018-03-26T01:19:46.701Z,26.60
2018-03-26T01:22:13.002Z,28.30
2018-03-26T01:24:39.233Z,29.20
2018-03-26T01:27:05.492Z,28.73
2018-03-26T01:29:31.764Z,27.90
2018-03-26T01:31:58.010Z,28.53
2018-03-26T01:34:24.319Z,28.53
2018-03-26T01:36:50.592Z,28.00
2018-03-26T01:39:16.900Z,27.03
2018-03-26T01:41:43.196Z,27.23
2018-03-26T01:44:09.421Z,26.70
2018-03-26T01:46:35.674Z,27.27
2018-03-26T01:49:01.945Z,28.27
2018-03-26T01:51:28.246Z,28.60
2018-03-26T01:53:54.483Z,27.30
2018-03-26T01:56:20.720Z,26.10
2018-03-26T01:58:46.977Z,27.67
2018-03-26T02:01:13.206Z,28.80
2018-03-26T02:03:39.514Z,26.40
2018-03-26T02:06:05.812Z,26.83
2018-03-26T02:08:32.065Z,27.33
2018-03-26T02:10:58.332Z,27.03
2018-03-26T02:13:24.609Z,29.37
2018-03-26T02:15:50.889Z,27.23
2018-03-26T02:18:17.180Z,27.37
2018-03-26T02:20:43.407Z,26.63
2018-03-26T02:23:09.677Z,26.63
2018-03-26T02:25:35.933Z,26.83
2018-03-26T02:28:02.229Z,27.07
2018-03-26T02:30:28.502Z,27.87
2018-03-26T02:32:54.741Z,28.43
2018-03-26T02:35:20.982Z,26.97
2018-03-26T02:37:47.288Z,25.97
2018-03-26T02:40:13.537Z,27.40
2018-03-26T02:42:39.787Z,26.43
2018-03-26T02:45:06.050Z,27.43
2018-03-26T02:47:32.294Z,27.07
2018-03-26T02:49:58.533Z,25.97
2018-03-26T02:52:24.812Z,27.87
2018-03-26T02:54:51.053Z,28.13
2018-03-26T02:57:18.385Z,25.90
2018-03-26T02:59:44.653Z,26.73
2018-03-26T03:02:10.898Z,29.13
2018-03-26T03:04:37.154Z,26.90
2018-03-26T03:07:03.436Z,27.17
2018-03-26T03:09:29.677Z,28.83
2018-03-26T03:11:55.929Z,26.77
2018-03-26T03:14:22.188Z,27.60
2018-03-26T03:16:48.417Z,26.13
2018-03-26T03:19:14.668Z,27.83
2018-03-26T03:21:40.944Z,27.93
2018-03-26T03:24:07.177Z,27.33
2018-03-26T03:26:33.402Z,27.33
2018-03-26T03:28:59.692Z,27.57
2018-03-26T03:31:25.949Z,27.97
2018-03-26T03:33:52.200Z,26.33
2018-03-26T03:36:18.469Z,27.97
2018-03-26T03:38:44.717Z,28.40
2018-03-26T03:41:10.964Z,28.13
2018-03-26T03:43:37.249Z,27.73
2018-03-26T03:46:03.519Z,28.07
2018-03-26T03:48:29.944Z,27.73
2018-03-26T03:50:56.328Z,26.10
2018-03-26T03:53:22.599Z,27.40
2018-03-26T03:55:49.027Z,26.93
2018-03-26T03:58:15.360Z,27.70
2018-03-26T04:00:41.632Z,26.87
2018-03-26T04:03:07.889Z,29.40
2018-03-26T04:05:34.160Z,29.50
2018-03-26T04:08:00.437Z,27.93
2018-03-26T04:10:26.716Z,27.40
2018-03-26T04:12:54.109Z,27.63
2018-03-26T04:15:20.384Z,30.27
2018-03-26T04:17:46.620Z,28.37
2018-03-26T04:20:12.949Z,27.17
2018-03-26T04:22:39.209Z,27.80
2018-03-26T04:25:05.479Z,28.77
2018-03-26T04:27:31.777Z,26.63
2018-03-26T04:29:58.049Z,29.17
2018-03-26T04:32:24.302Z,28.50
2018-03-26T04:34:50.633Z,29.20
2018-03-26T04:37:16.953Z,28.53
2018-03-26T04:39:43.201Z,29.67
2018-03-26T04:42:09.484Z,30.47
2018-03-26T04:44:35.764Z,29.00
2018-03-26T04:47:02.038Z,28.93
2018-03-26T04:49:28.310Z,30.23
2018-03-26T04:51:54.608Z,28.70
2018-03-26T04:54:20.889Z,29.23
2018-03-26T04:56:47.149Z,31.53
2018-03-26T04:59:13.414Z,28.93
2018-03-26T05:01:39.653Z,29.50
2018-03-26T05:04:07.049Z,27.30
2018-03-26T05:06:33.285Z,30.17
2018-03-26T05:08:59.596Z,29.27
2018-03-26T05:11:25.867Z,29.40
2018-03-26T05:13:52.101Z,29.40
2018-03-26T05:16:18.328Z,29.43
2018-03-26T05:18:44.593Z,27.60
2018-03-26T05:21:10.837Z,29.90
2018-03-26T05:23:37.090Z,28.43
2018-03-26T05:26:03.477Z,36.00
2018-03-26T05:28:29.711Z,31.40
2018-03-26T05:30:55.970Z,30.03
2018-03-26T05:33:22.238Z,31.53
2018-03-26T05:35:48.476Z,31.93
2018-03-26T05:38:14.712Z,30.77
2018-03-26T05:40:40.980Z,31.97
2018-03-26T05:43:07.211Z,31.07
2018-03-26T05:45:33.464Z,30.53
2018-03-26T05:47:59.797Z,32.47
2018-03-26T05:50:26.054Z,29.87
2018-03-26T05:52:52.284Z,31.37
2018-03-26T05:55:18.558Z,30.63
2018-03-26T05:57:44.812Z,31.57
2018-03-26T06:00:11.078Z,29.93
2018-03-26T06:02:37.337Z,27.77
2018-03-26T06:05:03.572Z,27.90
2018-03-26T06:07:29.805Z,29.63
2018-03-26T06:09:56.084Z,28.60
2018-03-26T06:12:22.340Z,29.27
2018-03-26T06:14:48.588Z,29.33
2018-03-26T06:17:15.941Z,29.33
2018-03-26T06:19:42.216Z,28.83
2018-03-26T06:22:08.561Z,28.33
2018-03-26T06:24:34.894Z,27.93
2018-03-26T06:27:01.192Z,30.43
2018-03-26T06:29:27.497Z,30.20
2018-03-26T06:31:53.820Z,29.40
2018-03-26T06:34:20.097Z,29.43
2018-03-26T06:39:44.932Z,28.57
2018-03-26T06:42:11.209Z,29.63
2018-03-26T06:44:37.474Z,27.87
2018-03-26T06:47:03.758Z,28.20
2018-03-26T06:49:30.063Z,29.20
2018-03-26T06:51:56.308Z,27.63
2018-03-26T06:54:22.537Z,28.30
2018-03-26T06:56:48.844Z,28.10
2018-03-26T06:59:15.108Z,28.53
2018-03-26T07:01:41.344Z,29.60
2018-03-26T07:04:07.625Z,27.33
2018-03-26T07:06:33.852Z,30.60
2018-03-26T07:09:00.093Z,28.27
2018-03-26T07:11:26.377Z,27.50
2018-03-26T07:13:52.649Z,27.33
2018-03-26T07:16:18.933Z,28.73
2018-03-26T07:18:45.213Z,27.67
2018-03-26T07:21:11.460Z,28.60
2018-03-26T07:23:37.718Z,27.90
2018-03-26T07:26:04.017Z,26.47
2018-03-26T07:28:30.285Z,28.57
2018-03-26T07:30:56.540Z,27.07
2018-03-26T07:33:22.817Z,26.20
2018-03-26T07:35:49.074Z,25.53
2018-03-26T07:38:15.329Z,27.37
2018-03-26T07:40:41.606Z,28.07
2018-03-26T07:43:07.841Z,25.40
2018-03-26T07:45:34.081Z,25.30
2018-03-26T07:48:00.393Z,24.87
2018-03-26T07:50:26.633Z,25.03
2018-03-26T07:52:52.861Z,25.63
2018-03-26T07:55:19.184Z,24.10
2018-03-26T07:57:45.417Z,30.13
2018-03-26T08:00:11.724Z,26.07
2018-03-26T08:02:38.000Z,24.13
2018-03-26T08:05:04.281Z,24.17
2018-03-26T08:07:30.536Z,25.77
2018-03-26T08:09:56.808Z,24.43
2018-03-26T08:12:23.045Z,25.33
2018-03-26T08:14:49.291Z,25.57
2018-03-26T08:17:15.581Z,26.00
2018-03-26T08:19:41.809Z,25.67
2018-03-26T08:22:08.093Z,24.47
2018-03-26T08:24:34.424Z,25.37
2018-03-26T08:27:00.673Z,24.90
2018-03-26T08:29:26.940Z,25.00
2018-03-26T08:31:53.295Z,25.30
2018-03-26T08:34:19.525Z,25.60
2018-03-26T08:36:45.788Z,26.47
2018-03-26T08:39:12.069Z,25.97
2018-03-26T08:41:38.314Z,25.47
2018-03-26T08:44:04.564Z,24.73
2018-03-26T08:46:30.860Z,26.33
2018-03-26T08:48:57.135Z,26.60
2018-03-26T08:51:23.401Z,26.40
2018-03-26T08:53:49.697Z,25.33
2018-03-26T08:56:15.994Z,25.73
2018-03-26T08:58:42.232Z,25.60
2018-03-26T09:01:08.577Z,24.83
2018-03-26T09:03:34.865Z,26.13
2018-03-26T09:06:01.114Z,26.23
2018-03-26T09:08:27.380Z,23.97
2018-03-26T09:10:53.641Z,24.57
2018-03-26T09:13:26.990Z,23.13
2018-03-26T09:15:53.245Z,23.80
2018-03-26T09:18:19.502Z,22.17
2018-03-26T09:20:45.832Z,22.93
2018-03-26T09:23:12.116Z,23.33
2018-03-26T09:25:38.382Z,24.80
2018-03-26T09:28:04.684Z,24.70
2018-03-26T09:30:30.930Z,25.13
2018-03-26T09:32:57.182Z,22.77
2018-03-26T09:35:23.579Z,22.73
2018-03-26T09:37:49.865Z,22.67
2018-03-26T09:40:16.148Z,24.70
2018-03-26T09:42:42.488Z,23.03
2018-03-26T09:45:08.762Z,27.03
2018-03-26T09:47:35.036Z,23.17
2018-03-26T09:50:01.364Z,23.57
2018-03-26T09:52:27.634Z,23.77
2018-03-26T09:54:53.939Z,22.83
2018-03-26T09:57:20.256Z,23.37
2018-03-26T09:59:46.562Z,21.90
2018-03-26T10:02:12.854Z,26.13
2018-03-26T10:04:39.138Z,22.93
2018-03-26T10:07:05.411Z,23.83
2018-03-26T10:09:31.684Z,21.20
2018-03-26T10:11:57.964Z,22.20
2018-03-26T10:14:24.210Z,22.13
2018-03-26T10:16:50.474Z,21.07
2018-03-26T10:19:16.768Z,23.03
2018-03-26T10:21:43.009Z,22.13
2018-03-26T10:24:09.268Z,22.07
2018-03-26T10:26:35.572Z,23.07
2018-03-26T10:29:01.841Z,22.17
2018-03-26T10:31:28.084Z,22.00
2018-03-26T10:33:54.445Z,21.37
2018-03-26T10:36:20.688Z,22.73
2018-03-26T10:38:46.933Z,25.63
2018-03-26T10:41:13.241Z,22.93
2018-03-26T10:43:39.513Z,22.93
2018-03-26T10:46:05.816Z,21.77
2018-03-26T10:48:32.089Z,20.27
2018-03-26T10:50:58.356Z,20.27
2018-03-26T10:53:24.620Z,20.70
2018-03-26T10:55:50.904Z,20.70
2018-03-26T10:58:17.161Z,20.13
2018-03-26T11:00:43.416Z,20.63
2018-03-26T11:03:09.716Z,20.53
2018-03-26T11:05:35.995Z,20.03
2018-03-26T11:08:02.252Z,21.73
2018-03-26T11:10:28.558Z,22.57
2018-03-26T11:12:54.833Z,21.73
2018-03-26T11:15:21.117Z,21.50
2018-03-26T11:17:47.401Z,22.07
2018-03-26T11:20:13.661Z,20.23
2018-03-26T11:22:39.960Z,21.20
2018-03-26T11:25:06.273Z,20.57
2018-03-26T11:27:32.517Z,22.23
2018-03-26T11:29:58.812Z,21.83
2018-03-26T11:32:25.083Z,21.43
2018-03-26T11:34:51.340Z,21.97
2018-03-26T11:37:17.589Z,20.07
2018-03-26T11:39:44.006Z,20.10
2018-03-26T11:42:10.260Z,31.93
2018-03-26T11:44:36.508Z,20.90
2018-03-26T11:47:02.800Z,19.63
2018-03-26T11:49:29.116Z,19.53
2018-03-26T11:51:55.333Z,19.80
2018-03-26T11:54:21.608Z,20.13
2018-03-26T11:56:47.853Z,19.47
2018-03-26T11:59:14.153Z,19.93
2018-03-26T12:01:40.444Z,19.83
2018-03-26T12:04:06.716Z,20.17
2018-03-26T12:06:32.957Z,18.97
2018-03-26T12:08:59.242Z,18.97
2018-03-26T12:11:25.493Z,23.83
2018-03-26T12:13:51.741Z,18.43
2018-03-26T12:16:18.019Z,18.03
2018-03-26T12:18:44.279Z,17.83
2018-03-26T12:21:10.568Z,18.57
2018-03-26T12:23:48.909Z,17.47
2018-03-26T12:26:15.181Z,16.57
2018-03-26T12:28:53.580Z,17.37
2018-03-26T12:31:19.825Z,16.80
2018-03-26T12:33:58.287Z,18.17
2018-03-26T12:36:24.634Z,17.50
2018-03-26T12:38:50.906Z,16.90
2018-03-26T12:41:17.181Z,17.20
2018-03-26T12:43:43.455Z,17.63
2018-03-26T12:46:21.932Z,19.33
2018-03-26T12:48:48.186Z,18.53
2018-03-26T12:51:26.681Z,18.03
2018-03-26T12:53:52.941Z,18.93
2018-03-26T12:56:19.190Z,20.90
2018-03-26T12:58:48.578Z,19.33
2018-03-26T13:01:27.089Z,20.87
2018-03-26T13:03:53.383Z,20.10
2018-03-26T13:06:19.657Z,20.23
2018-03-26T13:08:45.938Z,22.07
2018-03-26T13:11:12.269Z,19.67
2018-03-26T13:13:38.507Z,20.67
2018-03-26T13:16:04.809Z,22.73
2018-03-26T13:18:31.094Z,19.87
2018-03-26T13:20:57.357Z,20.53
2018-03-26T13:23:23.637Z,20.80
2018-03-26T13:25:49.926Z,21.63
2018-03-26T13:28:16.254Z,22.40
2018-03-26T13:30:42.504Z,21.03
2018-03-26T13:33:08.778Z,20.80
2018-03-26T13:35:35.050Z,21.90
2018-03-26T13:38:01.301Z,21.40
2018-03-26T13:40:27.564Z,20.70
2018-03-26T13:42:53.829Z,22.57
2018-03-26T13:45:20.066Z,22.83
2018-03-26T13:47:46.333Z,22.70
2018-03-26T13:50:12.585Z,22.30
2018-03-26T13:52:38.860Z,21.63
2018-03-26T13:55:05.164Z,23.73
2018-03-26T13:57:31.441Z,23.97
2018-03-26T13:59:57.694Z,22.17
2018-03-26T14:02:23.974Z,22.97
2018-03-26T14:04:50.227Z,23.07
2018-03-26T14:07:16.465Z,24.27
2018-03-26T14:09:54.972Z,23.63
2018-03-26T14:12:33.460Z,23.43
2018-03-26T14:15:11.946Z,23.67
2018-03-26T14:17:49.237Z,23.03
2018-03-26T14:20:15.552Z,23.73
2018-03-26T14:22:41.820Z,23.57
2018-03-26T14:25:08.148Z,23.67
2018-03-26T14:27:34.440Z,24.07
2018-03-26T14:30:00.689Z,23.47
2018-03-26T14:32:27.027Z,23.47
2018-03-26T14:35:05.701Z,25.10
2018-03-26T14:37:31.905Z,25.30
2018-03-26T14:39:58.157Z,22.93
2018-03-26T14:42:24.470Z,24.43
2018-03-26T14:44:50.738Z,22.93
2018-03-26T14:47:17.012Z,23.80
2018-03-26T14:49:43.290Z,23.70
2018-03-26T14:52:09.553Z,23.20
2018-03-26T14:54:36.678Z,24.03
2018-03-26T14:57:02.973Z,23.40
2018-03-26T14:59:29.243Z,23.90
2018-03-26T15:01:55.492Z,24.90
2018-03-26T15:04:21.828Z,24.80
2018-03-26T15:06:48.105Z,25.87
2018-03-26T15:09:14.362Z,26.00
2018-03-26T15:11:40.633Z,23.63
2018-03-26T15:14:06.872Z,24.97
2018-03-26T15:16:33.107Z,22.93
2018-03-26T15:18:59.428Z,22.53
2018-03-26T15:21:25.664Z,23.60
2018-03-26T15:23:52.228Z,22.20
2018-03-26T15:26:18.585Z,22.93
2018-03-26T15:28:44.964Z,22.00
2018-03-26T15:31:11.218Z,21.47
2018-03-26T15:33:37.543Z,21.83
2018-03-26T15:36:03.828Z,19.30
2018-03-26T15:38:30.065Z,17.13
2018-03-26T15:40:56.573Z,17.57
2018-03-26T15:43:22.817Z,17.23
2018-03-26T15:45:49.049Z,17.53
2018-03-26T15:48:15.333Z,17.70
2018-03-26T15:50:41.637Z,19.40
2018-03-26T15:53:07.834Z,19.43
2018-03-26T15:55:34.116Z,19.67
2018-03-26T15:58:00.519Z,19.10
2018-03-26T16:00:26.773Z,18.23
2018-03-26T16:02:59.153Z,18.67
2018-03-26T16:05:25.500Z,19.67
2018-03-26T16:07:51.743Z,22.13
2018-03-26T16:10:18.017Z,22.10
2018-03-26T16:12:44.270Z,21.57
2018-03-26T16:15:10.570Z,20.87
2018-03-26T16:17:36.842Z,21.30
2018-03-26T16:20:03.125Z,18.33
2018-03-26T16:22:29.366Z,20.27
2018-03-26T16:24:55.638Z,19.23
2018-03-26T16:27:21.878Z,20.93
2018-03-26T16:29:48.123Z,20.40
2018-03-26T16:32:14.413Z,19.33
2018-03-26T16:34:40.668Z,19.60
2018-03-26T16:37:06.912Z,19.83
2018-03-26T16:39:33.213Z,18.30
2018-03-26T16:42:11.474Z,15.70
2018-03-26T16:44:37.804Z,16.47
2018-03-26T16:47:04.045Z,16.57
2018-03-26T16:49:30.371Z,14.97
2018-03-26T16:51:56.650Z,15.40
2018-03-26T16:54:22.909Z,15.40
2018-03-26T16:56:49.169Z,15.67
2018-03-26T16:59:15.424Z,16.80
2018-03-26T17:01:41.677Z,16.00
2018-03-26T17:04:07.969Z,16.57
2018-03-26T17:06:34.332Z,16.10
2018-03-26T17:09:00.568Z,16.40
2018-03-26T17:11:26.801Z,16.03
2018-03-26T17:13:53.064Z,17.53
2018-03-26T17:16:19.317Z,17.57
2018-03-26T17:18:45.566Z,17.80
2018-03-26T17:21:12.242Z,17.30
2018-03-26T17:23:38.906Z,17.73
2018-03-26T17:26:05.177Z,18.10
2018-03-26T17:28:31.565Z,18.10
2018-03-26T17:30:57.883Z,18.77
2018-03-26T17:33:24.273Z,18.30
2018-03-26T17:35:50.577Z,20.90
2018-03-26T17:38:16.845Z,24.60
2018-03-26T17:40:43.109Z,25.10
2018-03-26T17:43:09.484Z,25.07
2018-03-26T17:45:35.817Z,25.03
2018-03-26T17:48:02.155Z,25.47
2018-03-26T17:50:28.444Z,25.33
2018-03-26T17:52:54.789Z,25.40
2018-03-26T17:57:55.827Z,26.47
2018-03-26T18:00:22.177Z,24.83
2018-03-26T18:02:48.552Z,24.33
2018-03-26T18:05:14.997Z,23.60
2018-03-26T18:07:41.236Z,22.53
2018-03-26T18:10:07.666Z,22.67
2018-03-26T18:12:33.871Z,24.63
2018-03-26T18:15:00.338Z,23.13
2018-03-26T18:17:26.595Z,23.37
2018-03-26T18:19:53.194Z,19.97
2018-03-26T18:22:19.448Z,12.67
2018-03-26T18:24:45.719Z,12.63
2018-03-26T18:27:11.984Z,11.60
2018-03-26T18:29:38.350Z,11.77
2018-03-26T18:32:04.630Z,12.77
2018-03-26T18:34:31.035Z,12.87
2018-03-26T18:36:57.265Z,11.87
2018-03-26T18:39:23.594Z,12.83
2018-03-26T18:41:49.905Z,12.20
2018-03-26T18:44:16.348Z,13.07
2018-03-26T18:46:42.629Z,12.90
2018-03-26T18:49:08.969Z,13.53
2018-03-26T18:51:35.472Z,12.87
2018-03-26T18:54:01.802Z,12.37
2018-03-26T18:56:28.062Z,12.60
2018-03-26T18:58:54.316Z,12.47
2018-03-26T19:01:20.553Z,12.80
2018-03-26T19:03:47.100Z,12.23
2018-03-26T19:06:13.417Z,13.33
2018-03-26T19:08:39.745Z,12.40
2018-03-26T19:11:06.009Z,13.10
2018-03-26T19:13:32.274Z,12.17
2018-03-26T19:15:58.596Z,12.30
2018-03-26T19:18:24.913Z,12.63
2018-03-26T19:20:51.300Z,12.07
2018-03-26T19:23:17.532Z,13.30
2018-03-26T19:25:43.928Z,12.53
2018-03-26T19:28:10.185Z,12.80
2018-03-26T19:30:36.498Z,13.13
2018-03-26T19:33:02.760Z,13.70
2018-03-26T19:35:29.049Z,15.07
2018-03-26T19:37:55.298Z,14.10
2018-03-26T19:40:21.605Z,14.33
2018-03-26T19:42:47.895Z,15.17
2018-03-26T19:45:14.276Z,16.80
2018-03-26T19:47:40.758Z,14.73
2018-03-26T19:50:07.069Z,14.50
2018-03-26T19:52:33.359Z,14.90
2018-03-26T19:54:59.621Z,16.30
2018-03-26T19:57:25.807Z,20.00
2018-03-26T19:59:52.134Z,18.40
2018-03-26T20:02:18.404Z,20.63
2018-03-26T20:04:44.747Z,18.80
2018-03-26T20:07:10.993Z,20.77
2018-03-26T20:09:37.304Z,21.77
2018-03-26T20:12:04.812Z,22.57
2018-03-26T20:14:31.049Z,23.13
2018-03-26T20:16:57.395Z,24.57
2018-03-26T20:19:23.631Z,23.63
2018-03-26T20:21:49.961Z,26.27
2018-03-26T20:24:16.265Z,26.73
2018-03-26T20:26:42.516Z,25.97
2018-03-26T20:29:08.864Z,26.03
2018-03-26T20:31:35.149Z,25.47
2018-03-26T20:34:01.425Z,25.30
2018-03-26T20:36:27.680Z,24.27
2018-03-26T20:38:54.124Z,25.27
2018-03-26T20:41:20.502Z,24.33
2018-03-26T20:43:46.757Z,29.27
2018-03-26T20:46:13.088Z,28.87
2018-03-26T20:48:39.455Z,24.47
2018-03-26T20:51:05.792Z,22.97
2018-03-26T20:53:32.288Z,25.10
2018-03-26T20:55:58.662Z,24.27
2018-03-26T20:58:25.083Z,26.23
2018-03-26T21:00:51.453Z,26.23
2018-03-26T21:03:17.881Z,27.67
2018-03-26T21:05:44.110Z,26.67
2018-03-26T21:08:10.458Z,29.33
2018-03-26T21:10:37.736Z,27.43
2018-03-26T21:13:04.028Z,29.00
2018-03-26T21:15:30.696Z,28.93
2018-03-26T21:17:56.964Z,28.20
2018-03-26T21:20:23.204Z,29.63
2018-03-26T21:22:49.480Z,32.97
2018-03-26T21:25:15.720Z,32.53
2018-03-26T21:27:42.214Z,27.17
2018-03-26T21:30:08.530Z,27.03
2018-03-26T21:32:34.912Z,27.47
2018-03-26T21:35:01.243Z,26.80
2018-03-26T21:37:27.791Z,23.97
2018-03-26T21:39:54.117Z,26.77
2018-03-26T21:42:20.375Z,25.10
2018-03-26T21:44:46.798Z,24.93
2018-03-26T21:47:13.447Z,26.10
2018-03-26T21:49:39.846Z,25.60
2018-03-26T21:52:06.183Z,23.13
2018-03-26T21:54:32.529Z,24.10
2018-03-26T21:56:58.816Z,23.40
2018-03-26T21:59:25.359Z,25.53
2018-03-26T22:01:51.661Z,24.90
2018-03-26T22:04:18.220Z,25.03
2018-03-26T22:06:44.523Z,24.07
2018-03-26T22:09:10.833Z,24.13
2018-03-26T22:11:37.134Z,25.33
2018-03-26T22:14:03.485Z,25.30
2018-03-26T22:16:29.854Z,23.50
2018-03-26T22:18:56.229Z,22.30
2018-03-26T22:21:22.758Z,24.87
2018-03-26T22:23:49.049Z,22.37
2018-03-26T22:26:15.332Z,21.93
2018-03-26T22:28:41.645Z,21.63
2018-03-26T22:31:09.181Z,20.20
2018-03-26T22:33:35.469Z,22.70
2018-03-26T22:36:01.851Z,21.27
2018-03-26T22:38:28.332Z,20.47
2018-03-26T22:40:54.625Z,20.73
2018-03-26T22:43:20.919Z,20.13
2018-03-26T22:45:47.287Z,19.97
2018-03-26T22:48:13.621Z,19.63
2018-03-26T22:50:39.901Z,17.80
2018-03-26T22:53:06.379Z,18.17
2018-03-26T22:55:32.636Z,17.93
2018-03-26T22:57:59.135Z,17.10
2018-03-26T23:00:25.424Z,16.27
2018-03-26T23:02:51.857Z,13.97
2018-03-26T23:05:18.215Z,16.20
2018-03-26T23:07:44.585Z,14.23
2018-03-26T23:10:10.841Z,14.87
2018-03-26T23:12:37.173Z,14.67
2018-03-26T23:15:03.902Z,14.50
2018-03-26T23:17:30.193Z,14.23
2018-03-26T23:19:56.706Z,12.93
2018-03-26T23:22:35.052Z,13.00
2018-03-26T23:25:01.627Z,12.97
2018-03-26T23:27:27.976Z,13.07
2018-03-26T23:29:54.266Z,12.97
2018-03-26T23:32:20.757Z,13.20
2018-03-26T23:34:47.058Z,12.43
2018-03-26T23:37:13.558Z,15.30
2018-03-26T23:39:39.821Z,13.70
2018-03-26T23:42:06.389Z,12.73
2018-03-26T23:44:32.775Z,13.47
2018-03-26T23:46:59.096Z,13.80
2018-03-26T23:49:25.482Z,13.43
2018-03-26T23:51:51.918Z,14.67
2018-03-26T23:54:18.205Z,15.50
2018-03-26T23:56:44.785Z,15.57
2018-03-26T23:59:11.043Z,15.30
